Time;durP1;ratioP1;P1;durP2;ratioP2;P2;SDS_P1;SDS_P2;PMS_P1;PMS_P2;Temp;Humidity;BMP_temperature;BMP_pressure;BME280_temperature;BME280_humidity;BME280_pressure;Samples;Min_cycle;Max_cycle;Signal;HPM_P1;HPM_P2
2023/05/12 00:00:35;;;;;;;3.13;2.90;;;10.10;99.90;;;10.01;67.36;95197.06;5030819;28;20457;-57
2023/05/12 00:03:03;;;;;;;3.30;2.70;;;10.10;99.90;;;10.01;67.43;95195.25;5036982;28;20475;-64
2023/05/12 00:05:30;;;;;;;4.50;2.80;;;10.10;99.90;;;10.02;67.07;95202.19;5033339;28;20457;-57
2023/05/12 00:07:59;;;;;;;3.27;2.77;;;10.10;99.90;;;10.00;67.27;95198.00;5035138;28;20500;-58
2023/05/12 00:10:27;;;;;;;2.90;2.70;;;10.10;99.90;;;10.00;67.09;95198.00;5036290;28;20452;-56
2023/05/12 00:12:55;;;;;;;3.47;3.17;;;10.10;99.90;;;9.99;66.90;95197.19;5033514;28;20479;-64
2023/05/12 00:15:22;;;;;;;6.47;3.23;;;10.10;99.90;;;10.00;66.65;95195.38;5036403;28;20460;-64
2023/05/12 00:17:51;;;;;;;5.00;2.80;;;10.10;99.90;;;10.01;66.61;95204.94;5033510;28;20484;-57
2023/05/12 00:20:19;;;;;;;2.77;2.53;;;10.10;99.90;;;9.97;66.40;95196.44;5038915;28;20498;-65
2023/05/12 00:22:46;;;;;;;5.73;3.80;;;10.00;99.90;;;9.95;66.52;95192.31;5042883;28;21019;-59
2023/05/12 00:25:16;;;;;;;3.03;2.83;;;10.00;99.90;;;9.93;66.22;95192.44;5046837;28;20452;-64
2023/05/12 00:27:43;;;;;;;6.63;2.40;;;10.00;99.90;;;9.93;66.30;95200.31;5043720;28;20592;-65
2023/05/12 00:30:12;;;;;;;2.93;2.63;;;10.00;99.90;;;9.90;66.18;95200.56;5037380;28;20522;-57
2023/05/12 00:32:39;;;;;;;2.87;2.50;;;10.00;99.90;;;9.89;65.87;95201.53;5038896;28;20471;-58
2023/05/12 00:35:07;;;;;;;2.93;2.60;;;9.90;99.90;;;9.84;65.85;95201.06;5038446;28;20452;-65
2023/05/12 00:37:34;;;;;;;2.93;2.20;;;10.00;99.90;;;9.82;65.77;95195.94;5040170;28;20827;-58
2023/05/12 00:40:02;;;;;;;4.40;3.33;;;9.90;99.90;;;9.78;65.85;95202.41;5039315;28;20482;-58
2023/05/12 00:42:30;;;;;;;3.20;2.67;;;9.90;99.90;;;9.78;66.01;95204.22;5039150;28;20467;-57
2023/05/12 00:44:58;;;;;;;4.53;2.70;;;9.90;99.90;;;9.75;66.00;95207.09;5039329;28;20812;-64
2023/05/12 00:47:25;;;;;;;3.10;2.77;;;9.80;99.90;;;9.74;66.41;95210.66;5037467;28;20472;-57
2023/05/12 00:49:52;;;;;;;2.67;2.47;;;9.80;99.90;;;9.73;66.21;95211.63;5036551;28;21022;-65
2023/05/12 00:52:20;;;;;;;5.63;2.87;;;9.80;99.90;;;9.68;66.55;95212.84;5042117;28;21029;-65
2023/05/12 00:54:47;;;;;;;3.10;2.80;;;9.80;99.90;;;9.67;66.52;95210.34;5037972;28;20880;-58
2023/05/12 00:57:15;;;;;;;5.80;3.00;;;9.80;99.90;;;9.65;66.78;95212.25;5035988;28;20487;-64
2023/05/12 00:59:43;;;;;;;4.17;2.50;;;9.80;99.90;;;9.64;66.72;95208.78;5033019;28;20455;-65
2023/05/12 01:02:11;;;;;;;3.20;3.00;;;9.70;99.90;;;9.64;67.05;95211.41;5037865;28;20473;-58
2023/05/12 01:04:38;;;;;;;3.17;2.93;;;9.70;99.90;;;9.60;66.75;95215.25;5038485;28;20483;-65
2023/05/12 01:07:10;;;;;;;2.43;2.33;;;9.70;99.90;;;9.57;66.95;95214.69;5037158;28;20459;-64
2023/05/12 01:09:37;;;;;;;5.70;3.30;;;9.70;99.90;;;9.54;67.29;95213.13;5039232;28;20487;-65
2023/05/12 01:12:05;;;;;;;3.63;2.93;;;9.60;99.90;;;9.51;67.68;95216.84;5037572;28;20448;-58
2023/05/12 01:14:33;;;;;;;4.40;2.40;;;9.60;99.90;;;9.48;67.66;95224.13;5037722;28;20453;-66
2023/05/12 01:17:03;;;;;;;2.77;2.57;;;9.60;99.90;;;9.43;68.20;95215.78;5039197;28;20444;-64
2023/05/12 01:19:39;;;;;;;3.27;3.07;;;9.50;99.90;;;9.39;68.14;95217.00;5035798;28;20460;-59
2023/05/12 01:22:06;;;;;;;7.10;2.83;;;9.50;99.90;;;9.35;68.22;95219.03;5034104;28;20547;-65
2023/05/12 01:24:34;;;;;;;3.03;2.73;;;9.50;99.90;;;9.30;68.19;95223.84;5037865;28;20848;-57
2023/05/12 01:27:03;;;;;;;2.70;2.50;;;9.40;99.90;;;9.28;68.65;95217.84;5035218;28;20945;-64
2023/05/12 01:29:31;;;;;;;3.50;3.20;;;9.40;99.90;;;9.25;68.74;95231.22;5037936;28;20513;-59
2023/05/12 01:31:58;;;;;;;4.43;3.17;;;9.30;99.90;;;9.22;68.96;95221.81;5037499;28;20460;-65
2023/05/12 01:34:26;;;;;;;6.37;2.53;;;9.30;99.90;;;9.19;69.14;95223.88;5032747;28;20465;-65
2023/05/12 01:36:53;;;;;;;3.47;3.27;;;9.30;99.90;;;9.14;69.45;95222.44;5037803;28;20557;-57
2023/05/12 01:39:20;;;;;;;6.73;3.07;;;9.30;99.90;;;9.13;69.48;95230.44;5036928;28;20463;-62
2023/05/12 01:41:47;;;;;;;2.70;2.33;;;9.20;99.90;;;9.13;69.46;95225.19;5037343;28;20487;-64
2023/05/12 01:44:16;;;;;;;4.70;3.00;;;9.20;99.90;;;9.12;69.77;95220.88;5032355;28;20472;-64
2023/05/12 01:46:43;;;;;;;6.93;3.60;;;9.20;99.90;;;9.10;70.18;95222.81;5032720;28;20521;-58
2023/05/12 01:49:10;;;;;;;2.80;2.60;;;9.20;99.90;;;9.10;70.06;95223.63;5032815;28;20578;-64
2023/05/12 01:51:38;;;;;;;3.33;3.10;;;9.20;99.90;;;9.09;69.85;95229.00;5034618;28;20534;-57
2023/05/12 01:54:05;;;;;;;2.87;2.73;;;9.20;99.90;;;9.08;70.76;95224.72;5035138;28;20476;-64
2023/05/12 01:56:33;;;;;;;3.03;2.83;;;9.20;99.90;;;9.05;70.01;95230.22;5028247;28;20487;-63
2023/05/12 01:59:00;;;;;;;5.87;3.00;;;9.10;99.90;;;9.01;70.33;95218.28;5036013;28;20473;-63
2023/05/12 02:01:28;;;;;;;3.47;2.93;;;9.10;99.90;;;8.99;70.53;95220.19;5035885;28;20993;-66
2023/05/12 02:03:56;;;;;;;5.17;3.17;;;9.10;99.90;;;8.98;70.96;95214.09;5037540;28;20488;-65
2023/05/12 02:06:23;;;;;;;3.27;3.07;;;9.10;99.90;;;8.95;71.22;95217.81;5029639;28;20464;-64
2023/05/12 02:08:51;;;;;;;4.00;3.00;;;9.10;99.90;;;8.96;71.83;95216.84;5035726;28;20500;-64
2023/05/12 02:11:18;;;;;;;2.70;2.50;;;9.10;99.90;;;8.99;71.42;95215.78;5036733;28;20475;-63
2023/05/12 02:13:45;;;;;;;8.07;4.17;;;9.10;99.90;;;9.00;71.86;95221.84;5031961;28;20493;-56
2023/05/12 02:16:13;;;;;;;5.13;3.23;;;9.10;99.90;;;8.99;71.31;95223.66;5034439;28;20457;-58
2023/05/12 02:18:41;;;;;;;4.37;3.23;;;9.10;99.90;;;8.98;72.13;95219.34;5031324;28;20488;-57
2023/05/12 02:21:09;;;;;;;4.23;3.80;;;9.10;99.90;;;8.97;71.92;95222.94;5034223;28;20457;-62
2023/05/12 02:23:36;;;;;;;6.13;3.00;;;9.10;99.90;;;8.99;72.24;95225.44;5036168;28;20478;-58
2023/05/12 02:26:03;;;;;;;5.60;4.03;;;9.10;99.90;;;8.96;71.63;95224.72;5032922;28;20460;-58
2023/05/12 02:28:31;;;;;;;5.93;2.73;;;9.10;99.90;;;8.95;71.93;95220.44;5035673;28;20503;-57
2023/05/12 02:30:58;;;;;;;2.93;2.73;;;9.00;99.90;;;8.92;71.77;95215.44;5035931;28;20463;-58
2023/05/12 02:33:25;;;;;;;3.53;2.80;;;9.00;99.90;;;8.90;71.44;95219.13;5034497;28;20481;-57
2023/05/12 02:35:54;;;;;;;2.90;2.70;;;9.00;99.90;;;8.87;71.99;95216.75;5036051;28;21017;-58
2023/05/12 02:38:21;;;;;;;3.50;3.20;;;9.00;99.90;;;8.83;72.26;95210.06;5031268;28;20480;-64
2023/05/12 02:40:48;;;;;;;3.23;3.03;;;9.00;99.90;;;8.82;72.07;95208.41;5032059;28;20647;-58
2023/05/12 02:43:16;;;;;;;5.87;3.30;;;9.00;99.90;;;8.77;72.74;95211.41;5032657;28;20529;-64
2023/05/12 02:45:43;;;;;;;3.40;2.70;;;8.90;99.90;;;8.73;72.54;95221.28;5029990;28;20460;-62
2023/05/12 02:48:10;;;;;;;5.17;3.17;;;8.90;99.90;;;8.69;72.48;95216.38;5033945;28;20550;-60
2023/05/12 02:50:38;;;;;;;4.50;3.23;;;8.80;99.90;;;8.66;72.62;95221.88;5034786;28;20491;-63
2023/05/12 02:53:06;;;;;;;4.60;3.30;;;8.80;99.90;;;8.64;72.92;95222.00;5036884;28;20475;-57
2023/05/12 02:55:34;;;;;;;5.60;3.70;;;8.80;99.90;;;8.61;72.34;95214.38;5034009;28;20461;-58
2023/05/12 02:58:01;;;;;;;4.80;3.10;;;8.70;99.90;;;8.60;72.29;95221.41;5036868;28;20473;-64
2023/05/12 03:00:28;;;;;;;3.70;3.27;;;8.70;99.90;;;8.56;72.74;95222.59;5037349;28;20981;-58
2023/05/12 03:02:55;;;;;;;7.13;3.70;;;8.70;99.90;;;8.53;73.53;95220.19;5034354;28;20475;-65
2023/05/12 03:05:23;;;;;;;3.73;3.10;;;8.70;99.90;;;8.52;73.69;95229.03;5032923;28;20540;-65
2023/05/12 03:07:50;;;;;;;5.40;3.80;;;8.70;99.90;;;8.52;73.15;95234.28;5036326;28;20460;-57
2023/05/12 03:10:19;;;;;;;3.90;3.60;;;8.60;99.90;;;8.51;73.54;95223.91;5034699;28;20499;-64
2023/05/12 03:12:46;;;;;;;4.37;3.70;;;8.60;99.90;;;8.50;73.89;95225.69;5036197;28;20470;-58
2023/05/12 03:15:13;;;;;;;9.40;3.70;;;8.60;99.90;;;8.49;73.74;95224.03;5036069;28;20514;-65
2023/05/12 03:17:41;;;;;;;5.40;4.60;;;8.60;99.90;;;8.47;73.26;95222.47;5032412;28;20962;-59
2023/05/12 03:20:09;;;;;;;3.60;3.13;;;8.60;99.90;;;8.48;73.26;95221.53;5035504;28;20456;-57
2023/05/12 03:22:36;;;;;;;7.17;4.70;;;8.60;99.90;;;8.47;73.25;95231.16;5030594;28;20476;-65
2023/05/12 03:25:04;;;;;;;4.43;4.03;;;8.60;99.90;;;8.46;73.45;95234.75;5032023;28;21104;-57
2023/05/12 03:27:33;;;;;;;11.87;8.90;;;8.60;99.90;;;8.48;73.53;95247.75;5033430;28;20472;-56
2023/05/12 03:30:00;;;;;;;12.80;8.30;;;8.60;99.90;;;8.46;73.95;95237.38;5035360;28;20496;-58
2023/05/12 03:32:28;;;;;;;7.13;6.43;;;8.50;99.90;;;8.45;73.35;95240.13;5030441;28;20563;-64
2023/05/12 03:34:55;;;;;;;7.33;6.00;;;8.60;99.90;;;8.42;73.94;95243.75;5032395;28;20548;-57
2023/05/12 03:37:22;;;;;;;8.57;6.00;;;8.50;99.90;;;8.41;73.84;95245.56;5032317;28;20492;-65
2023/05/12 03:39:50;;;;;;;9.57;4.93;;;8.50;99.90;;;8.41;74.17;95244.72;5035764;28;20473;-57
2023/05/12 03:42:18;;;;;;;10.37;7.00;;;8.50;99.90;;;8.39;74.38;95244.00;5030813;28;20833;-58
2023/05/12 03:44:46;;;;;;;8.30;7.00;;;8.50;99.90;;;8.39;73.44;95259.72;5030120;28;20460;-65
2023/05/12 03:47:13;;;;;;;10.77;6.27;;;8.50;99.90;;;8.38;73.86;95258.91;5028256;28;20490;-57
2023/05/12 03:49:41;;;;;;;8.63;7.27;;;8.50;99.90;;;8.40;74.21;95266.66;5041083;28;20499;-66
2023/05/12 03:52:08;;;;;;;9.20;5.53;;;8.50;99.90;;;8.38;74.45;95251.03;5039127;28;20459;-66
2023/05/12 03:54:35;;;;;;;7.90;5.57;;;8.50;99.90;;;8.38;74.60;95258.91;5042312;28;20490;-58
2023/05/12 03:57:03;;;;;;;7.33;4.97;;;8.50;99.90;;;8.38;74.95;95252.81;5036776;28;20463;-65
2023/05/12 03:59:31;;;;;;;7.53;5.63;;;8.50;99.90;;;8.39;74.24;95255.31;5037123;28;20459;-57
2023/05/12 04:02:00;;;;;;;7.77;5.80;;;8.50;99.90;;;8.39;73.88;95259.72;5039149;28;20484;-56
2023/05/12 04:04:27;;;;;;;8.23;6.60;;;8.50;99.90;;;8.40;74.95;95256.16;5033689;28;20457;-64
2023/05/12 04:06:55;;;;;;;6.30;5.60;;;8.50;99.90;;;8.41;75.00;95271.78;5030205;28;20459;-55
2023/05/12 04:09:22;;;;;;;7.70;6.60;;;8.50;99.90;;;8.43;74.56;95266.41;5038713;28;20574;-57
2023/05/12 04:11:50;;;;;;;8.73;5.90;;;8.50;99.90;;;8.46;74.88;95266.22;5039161;28;20447;-58
2023/05/12 04:14:18;;;;;;;11.17;6.73;;;8.60;99.90;;;8.46;74.38;95263.59;5039711;28;20451;-58
2023/05/12 04:16:45;;;;;;;8.37;6.23;;;8.60;99.90;;;8.50;74.71;95267.63;5035586;28;20456;-68
2023/05/12 04:19:14;;;;;;;7.90;5.67;;;8.60;99.90;;;8.53;74.30;95270.00;5039741;28;20471;-72
2023/05/12 04:21:41;;;;;;;7.90;5.43;;;8.60;99.90;;;8.57;75.01;95268.84;5040950;28;20451;-58
2023/05/12 04:24:08;;;;;;;5.70;5.20;;;8.70;99.90;;;8.63;74.46;95261.44;5043801;28;20474;-69
2023/05/12 04:26:36;;;;;;;8.90;5.77;;;8.70;99.90;;;8.67;74.11;95268.13;5036510;28;20501;-57
2023/05/12 04:29:03;;;;;;;6.93;4.77;;;8.70;99.90;;;8.68;74.68;95268.00;5041840;28;20484;-69
2023/05/12 04:31:30;;;;;;;5.40;4.90;;;8.70;99.90;;;8.68;74.21;95264.56;5036894;28;20473;-56
2023/05/12 04:33:58;;;;;;;9.03;5.27;;;8.80;99.90;;;8.68;74.05;95269.81;5040645;28;20478;-68
2023/05/12 04:36:26;;;;;;;9.13;5.60;;;8.80;99.90;;;8.70;73.89;95270.50;5038962;28;20533;-66
2023/05/12 04:38:54;;;;;;;4.70;4.37;;;8.80;99.90;;;8.70;74.23;95267.91;5038371;28;20495;-57
2023/05/12 04:41:22;;;;;;;6.00;5.40;;;8.80;99.90;;;8.69;73.95;95274.94;5039293;28;20467;-57
2023/05/12 04:43:50;;;;;;;11.00;5.50;;;8.80;99.90;;;8.67;74.42;95268.13;5039801;28;20473;-57
2023/05/12 04:46:17;;;;;;;4.97;4.47;;;8.80;99.90;;;8.64;73.92;95271.81;5037307;28;20456;-56
2023/05/12 04:48:45;;;;;;;5.20;4.13;;;8.80;99.90;;;8.61;73.54;95269.44;5039823;28;20637;-69
2023/05/12 04:51:12;;;;;;;7.53;5.67;;;8.80;99.90;;;8.58;74.31;95278.38;5034331;28;20578;-56
2023/05/12 04:53:41;;;;;;;9.03;5.57;;;8.70;99.90;;;8.59;74.59;95266.91;5039401;28;20468;-68
2023/05/12 04:56:08;;;;;;;5.40;4.90;;;8.70;99.90;;;8.61;74.74;95270.28;5033608;28;20482;-66
2023/05/12 04:58:35;;;;;;;11.93;5.60;;;8.70;99.90;;;8.62;74.79;95276.34;5039320;28;20464;-56
2023/05/12 05:01:03;;;;;;;6.20;5.50;;;8.70;99.90;;;8.59;73.86;95269.53;5037788;28;20509;-57
2023/05/12 05:03:30;;;;;;;7.50;5.63;;;8.70;99.90;;;8.60;74.52;95268.59;5035999;28;21013;-61
2023/05/12 05:05:58;;;;;;;9.43;6.10;;;8.70;99.90;;;8.63;74.68;95269.31;5038262;28;20456;-65
2023/05/12 05:08:25;;;;;;;9.13;4.27;;;8.70;99.90;;;8.66;74.74;95272.56;5033532;28;20471;-65
2023/05/12 05:10:54;;;;;;;7.37;5.37;;;8.80;99.90;;;8.68;74.66;95273.25;5036891;28;21274;-65
2023/05/12 05:13:21;;;;;;;8.90;5.70;;;8.80;99.90;;;8.67;74.47;95268.13;5038117;28;20467;-66
2023/05/12 05:15:52;;;;;;;5.87;5.27;;;8.80;99.90;;;8.68;74.46;95262.75;5037489;28;20855;-59
2023/05/12 05:18:19;;;;;;;6.83;5.80;;;8.80;99.90;;;8.72;74.79;95277.31;5038241;28;21083;-66
2023/05/12 05:20:46;;;;;;;5.70;4.97;;;8.80;99.90;;;8.75;74.50;95276.22;5037541;28;20964;-58
2023/05/12 05:23:14;;;;;;;7.70;5.33;;;8.80;99.90;;;8.80;74.48;95276.72;5037653;28;20489;-58
2023/05/12 05:25:41;;;;;;;6.03;5.23;;;8.90;99.90;;;8.84;74.52;95275.53;5034051;28;20514;-65
2023/05/12 05:28:10;;;;;;;10.90;5.30;;;8.90;99.90;;;8.90;74.53;95287.34;5039217;28;20808;-57
2023/05/12 05:30:37;;;;;;;13.50;5.20;;;9.00;99.90;;;8.90;74.55;95285.53;5034768;28;20811;-58
2023/05/12 05:33:04;;;;;;;6.27;5.23;;;9.00;99.90;;;8.93;74.50;95290.53;5035974;28;20607;-66
2023/05/12 05:35:32;;;;;;;7.50;5.20;;;9.00;99.90;;;8.99;74.31;95283.16;5035781;28;20453;-67
2023/05/12 05:37:59;;;;;;;5.13;4.50;;;9.10;99.90;;;9.00;74.17;95287.44;5038511;28;20472;-56
2023/05/12 05:40:26;;;;;;;6.00;5.40;;;9.10;99.90;;;9.00;73.67;95288.28;5038765;28;21137;-67
2023/05/12 05:42:54;;;;;;;9.70;5.00;;;9.10;99.90;;;9.04;74.24;95287.09;5035005;28;21082;-67
2023/05/12 05:45:22;;;;;;;7.30;5.90;;;9.10;99.90;;;9.09;73.36;95279.69;5038129;28;20456;-66
2023/05/12 05:47:51;;;;;;;5.67;4.47;;;9.10;99.90;;;9.08;73.39;95282.44;5038232;28;20497;-66
2023/05/12 05:50:19;;;;;;;6.77;5.30;;;9.20;99.90;;;9.11;73.54;95290.09;5036492;28;20573;-58
2023/05/12 05:52:46;;;;;;;7.90;5.33;;;9.20;99.90;;;9.12;73.34;95289.09;5038365;28;20467;-57
2023/05/12 05:55:13;;;;;;;5.97;4.50;;;9.20;99.90;;;9.15;73.30;95297.59;5036826;28;20532;-66
2023/05/12 05:57:41;;;;;;;7.13;5.53;;;9.20;99.90;;;9.18;73.39;95293.88;5039764;28;20471;-67
2023/05/12 06:00:11;;;;;;;13.20;5.10;;;9.20;99.90;;;9.23;73.21;95291.72;5036422;28;20444;-66
2023/05/12 06:02:40;;;;;;;8.33;5.63;;;9.30;99.90;;;9.26;73.32;95295.88;5038774;28;20472;-58
2023/05/12 06:05:08;;;;;;;26.33;5.33;;;9.30;99.90;;;9.32;73.06;95290.16;5038597;28;20897;-57
2023/05/12 06:07:35;;;;;;;6.60;5.37;;;9.40;99.90;;;9.39;73.02;95295.75;5036916;28;20476;-58
2023/05/12 06:10:03;;;;;;;12.67;4.97;;;9.40;99.90;;;9.42;72.77;95296.34;5035984;28;20581;-69
2023/05/12 06:12:31;;;;;;;7.53;5.20;;;9.50;99.90;;;9.46;72.54;95292.50;5030351;28;20467;-66
2023/05/12 06:14:58;;;;;;;5.83;4.50;;;9.50;99.90;;;9.50;72.37;95298.38;5036239;28;20506;-66
2023/05/12 06:17:25;;;;;;;6.30;4.80;;;9.60;99.90;;;9.53;72.55;95303.38;5035647;28;20487;-56
2023/05/12 06:19:54;;;;;;;7.93;5.37;;;9.60;99.90;;;9.56;72.32;95304.91;5036639;28;20448;-59
2023/05/12 06:22:21;;;;;;;7.33;5.57;;;9.60;99.90;;;9.60;72.23;95306.34;5036328;28;21027;-67
2023/05/12 06:24:49;;;;;;;5.47;4.63;;;9.70;99.90;;;9.64;72.20;95313.84;5032209;28;20824;-68
2023/05/12 06:27:16;;;;;;;7.43;4.87;;;9.70;99.90;;;9.67;71.72;95308.34;5037923;28;20468;-58
2023/05/12 06:29:43;;;;;;;6.10;4.97;;;9.70;99.90;;;9.68;71.63;95310.03;5034051;28;20587;-67
2023/05/12 06:32:11;;;;;;;8.00;4.50;;;9.80;99.90;;;9.67;71.69;95320.66;5038510;28;20476;-65
2023/05/12 06:34:38;;;;;;;9.50;5.20;;;9.70;99.90;;;9.68;71.57;95319.69;5036729;28;20460;-58
2023/05/12 06:37:07;;;;;;;7.83;4.87;;;9.80;99.90;;;9.68;71.54;95311.81;5039409;28;20463;-58
2023/05/12 06:39:34;;;;;;;4.47;4.07;;;9.80;99.90;;;9.68;71.68;95323.16;5035220;28;20973;-66
2023/05/12 06:42:02;;;;;;;23.63;5.40;;;9.80;99.90;;;9.71;71.71;95316.81;5040104;28;20456;-66
2023/05/12 06:44:29;;;;;;;8.43;5.20;;;9.80;99.90;;;9.76;71.55;95321.69;5037466;28;20688;-67
2023/05/12 06:46:57;;;;;;;6.03;5.27;;;9.80;99.90;;;9.81;71.11;95324.81;5035721;28;20456;-67
2023/05/12 06:49:24;;;;;;;5.13;4.60;;;9.90;99.90;;;9.85;71.10;95310.44;5037479;28;20457;-67
2023/05/12 06:51:52;;;;;;;6.43;5.70;;;9.90;99.90;;;9.91;70.98;95323.06;5036888;28;20491;-67
2023/05/12 06:54:20;;;;;;;8.50;6.30;;;10.00;99.90;;;9.96;70.89;95325.34;5030580;28;20456;-67
2023/05/12 06:56:47;;;;;;;10.07;5.60;;;10.00;99.90;;;10.00;70.76;95317.06;5036882;28;21115;-66
2023/05/12 06:59:15;;;;;;;9.50;5.23;;;10.00;99.90;;;10.03;70.43;95308.13;5036133;28;20570;-67
2023/05/12 07:01:42;;;;;;;13.03;4.93;;;10.00;99.90;;;10.03;70.19;95316.00;5035701;28;20456;-57
2023/05/12 07:04:09;;;;;;;5.93;5.30;;;10.10;99.90;;;10.04;70.43;95318.50;5036656;28;21340;-58
2023/05/12 07:06:37;;;;;;;6.70;5.10;;;10.10;99.90;;;10.05;70.27;95322.81;5029233;28;20830;-59
2023/05/12 07:09:04;;;;;;;6.60;5.13;;;10.10;99.90;;;10.08;70.13;95321.72;5032862;28;20997;-65
2023/05/12 07:11:33;;;;;;;5.77;5.10;;;10.10;99.90;;;10.12;70.10;95312.63;5036743;28;20491;-57
2023/05/12 07:14:00;;;;;;;5.70;5.20;;;10.20;99.90;;;10.16;69.98;95321.94;5035518;28;20635;-65
2023/05/12 07:16:27;;;;;;;6.63;5.60;;;10.20;99.90;;;10.22;69.82;95317.94;5036202;28;20932;-66
2023/05/12 07:18:55;;;;;;;5.83;5.10;;;10.20;99.90;;;10.26;69.69;95319.38;5032518;28;20467;-57
2023/05/12 07:21:23;;;;;;;12.70;5.33;;;10.30;99.90;;;10.31;69.15;95335.59;5034763;28;20491;-66
2023/05/12 07:23:50;;;;;;;8.30;4.90;;;10.40;99.90;;;10.30;69.25;95331.31;5035324;28;20475;-66
2023/05/12 07:26:18;;;;;;;6.77;4.47;;;10.30;99.90;;;10.32;69.30;95329.38;5035503;28;20459;-65
2023/05/12 07:28:46;;;;;;;8.63;6.00;;;10.40;99.90;;;10.36;69.21;95324.72;5035456;28;20484;-57
2023/05/12 07:31:13;;;;;;;5.73;5.17;;;10.40;99.90;;;10.36;69.05;95325.56;5037211;28;20640;-57
2023/05/12 07:33:41;;;;;;;13.53;5.90;;;10.40;99.90;;;10.42;68.88;95324.22;5032612;28;20509;-66
2023/05/12 07:36:08;;;;;;;6.70;5.57;;;10.50;99.90;;;10.49;68.74;95328.00;5036270;28;20457;-58
2023/05/12 07:38:36;;;;;;;6.90;5.40;;;10.50;99.90;;;10.55;68.54;95326.66;5036589;28;20860;-65
2023/05/12 07:41:03;;;;;;;7.13;4.13;;;10.60;99.90;;;10.61;68.43;95331.41;5033635;28;20449;-58
2023/05/12 07:43:30;;;;;;;6.40;4.50;;;10.60;99.90;;;10.67;68.03;95336.13;5037428;28;20560;-65
2023/05/12 07:46:00;;;;;;;5.40;4.80;;;10.70;99.90;;;10.68;67.96;95331.72;5034258;28;20453;-65
2023/05/12 07:48:27;;;;;;;7.07;4.43;;;10.70;99.90;;;10.69;68.20;95331.59;5034655;28;20469;-66
2023/05/12 07:50:54;;;;;;;4.73;4.23;;;10.70;99.90;;;10.73;68.06;95335.63;5036090;28;20843;-57
2023/05/12 07:53:21;;;;;;;4.97;4.47;;;10.80;99.90;;;10.74;67.86;95326.78;5036494;28;20471;-66
2023/05/12 07:55:49;;;;;;;7.33;5.30;;;10.80;99.90;;;10.76;67.93;95324.03;5034512;28;20452;-66
2023/05/12 07:58:16;;;;;;;7.50;4.80;;;10.80;99.90;;;10.86;68.01;95326.69;5038699;28;21307;-58
2023/05/12 08:00:43;;;;;;;7.03;5.13;;;10.90;99.90;;;10.97;67.89;95321.38;5034317;28;20457;-58
2023/05/12 08:03:12;;;;;;;9.20;4.90;;;11.00;99.90;;;11.13;67.56;95316.44;5036163;28;20476;-58
2023/05/12 08:05:39;;;;;;;5.63;5.00;;;11.10;99.90;;;11.32;67.31;95321.94;5033291;28;20548;-66
2023/05/12 08:08:08;;;;;;;9.30;4.27;;;11.30;99.90;;;11.45;66.70;95319.91;5035076;28;21013;-66
2023/05/12 08:10:35;;;;;;;4.53;3.90;;;11.40;99.90;;;11.60;66.36;95317.72;5035828;28;20542;-56
2023/05/12 08:13:02;;;;;;;5.63;5.10;;;11.60;99.90;;;11.70;65.74;95323.03;5035277;28;20476;-57
2023/05/12 08:15:29;;;;;;;8.40;5.00;;;11.70;99.90;;;11.76;65.69;95319.84;5035478;28;20463;-58
2023/05/12 08:17:57;;;;;;;5.50;5.00;;;11.80;99.90;;;11.83;nan;95319.16;5035609;28;20528;-64
2023/05/12 08:20:25;;;;;;;6.90;5.17;;;11.80;99.90;;;11.91;64.60;95326.34;5034573;28;20858;-57
2023/05/12 08:22:53;;;;;;;8.97;5.00;;;11.90;99.90;;;11.96;64.91;95323.34;5032426;28;20469;-58
2023/05/12 08:25:20;;;;;;;6.23;5.73;;;12.00;99.90;;;11.99;64.15;95317.78;5035148;28;20971;-58
2023/05/12 08:27:48;;;;;;;8.63;5.50;;;12.00;99.90;;;11.97;64.13;95320.56;5033234;28;20471;-57
2023/05/12 08:30:15;;;;;;;6.87;5.50;;;12.00;99.90;;;12.02;64.47;95313.09;5034316;28;20529;-66
2023/05/12 08:32:43;;;;;;;6.53;5.83;;;12.00;99.90;;;12.08;64.54;95316.97;5033998;28;20492;-58
2023/05/12 08:35:10;;;;;;;15.33;6.20;;;12.10;99.90;;;12.16;64.13;95321.56;5037699;28;20521;-58
2023/05/12 08:37:39;;;;;;;19.93;6.17;;;12.10;99.90;;;12.24;63.75;95328.78;5038851;28;20486;-66
2023/05/12 08:40:11;;;;;;;13.33;6.20;;;12.20;99.90;;;12.30;63.68;95320.31;5037575;28;20471;-65
2023/05/12 08:42:42;;;;;;;17.70;5.67;;;12.30;99.90;;;12.39;63.82;95324.75;5033447;28;20813;-65
2023/05/12 08:45:11;;;;;;;10.47;6.13;;;12.30;99.90;;;12.48;63.49;95323.09;5038371;28;20501;-65
2023/05/12 08:47:38;;;;;;;5.80;5.23;;;12.40;99.90;;;12.59;63.36;95319.47;5040185;28;20488;-66
2023/05/12 08:50:07;;;;;;;15.53;5.73;;;12.50;99.90;;;12.71;62.97;95319.16;5040685;28;20456;-57
2023/05/12 08:52:35;;;;;;;6.43;5.63;;;12.60;99.90;;;12.83;62.66;95319.84;5037580;28;20519;-65
2023/05/12 08:55:05;;;;;;;8.63;4.83;;;12.80;99.90;;;12.84;62.64;95325.94;5039787;28;20539;-56
2023/05/12 08:57:33;;;;;;;10.90;5.00;;;12.80;99.90;;;12.87;61.60;95334.44;5039225;28;20475;-64
2023/05/12 09:00:00;;;;;;;8.03;5.00;;;12.90;99.90;;;12.88;61.32;95320.22;5039265;28;21109;-57
2023/05/12 09:02:28;;;;;;;9.67;5.63;;;12.90;99.90;;;12.85;60.79;95319.69;5038270;28;20822;-58
2023/05/12 09:04:56;;;;;;;6.03;5.47;;;12.90;99.60;;;12.84;60.91;95326.78;5036878;28;20457;-67
2023/05/12 09:07:23;;;;;;;13.07;6.17;;;12.90;99.50;;;12.86;61.11;95318.72;5038545;28;20555;-58
2023/05/12 09:09:54;;;;;;;8.00;5.50;;;12.90;99.70;;;12.91;60.85;95304.09;5038696;28;20538;-58
2023/05/12 09:12:23;;;;;;;6.70;4.70;;;12.90;99.70;;;12.99;60.90;95300.75;5036810;28;20510;-57
2023/05/12 09:14:58;;;;;;;7.20;4.60;;;12.90;99.40;;;13.08;60.35;95297.25;5036945;28;20456;-58
2023/05/12 09:17:25;;;;;;;6.60;4.80;;;13.10;99.20;;;13.25;60.35;95294.81;5036706;28;20543;-60
2023/05/12 09:19:52;;;;;;;4.67;4.20;;;13.20;99.40;;;13.45;60.27;95298.25;5038129;28;21018;-66
2023/05/12 09:22:28;;;;;;;6.10;4.90;;;13.30;99.20;;;13.61;59.74;95295.78;5037485;28;20974;-66
2023/05/12 09:24:55;;;;;;;10.57;4.63;;;13.50;98.80;;;13.78;59.14;95286.22;5034308;28;20510;-57
2023/05/12 09:27:26;;;;;;;5.70;4.43;;;13.70;98.70;;;13.96;58.47;95288.06;5038161;28;20476;-58
2023/05/12 09:29:54;;;;;;;8.93;4.07;;;13.80;98.10;;;14.09;58.06;95293.78;5033264;28;20828;-66
2023/05/12 09:32:31;;;;;;;4.00;3.70;;;13.90;97.70;;;14.22;57.65;95282.84;5036480;28;20496;-58
2023/05/12 09:35:02;;;;;;;3.80;3.37;;;14.10;97.20;;;14.31;56.75;95291.66;5033836;28;20539;-59
2023/05/12 09:37:33;;;;;;;3.63;3.33;;;14.20;96.50;;;14.37;56.58;95290.22;5034498;28;21012;-66
2023/05/12 09:40:01;;;;;;;6.03;3.27;;;14.30;96.60;;;14.49;56.74;95289.00;5037491;28;20459;-59
2023/05/12 09:42:31;;;;;;;6.00;3.80;;;14.40;96.40;;;14.69;55.69;95295.81;5038438;28;20508;-59
2023/05/12 09:45:03;;;;;;;5.53;3.60;;;14.60;95.80;;;14.84;55.88;95300.53;5036934;28;20452;-58
2023/05/12 09:47:35;;;;;;;8.70;3.67;;;14.70;95.70;;;14.95;55.83;95299.44;5037914;28;20480;-58
2023/05/12 09:50:03;;;;;;;4.70;3.90;;;14.80;95.60;;;14.95;54.83;95296.78;5038580;28;21025;-67
2023/05/12 09:52:31;;;;;;;4.27;3.00;;;14.90;94.70;;;14.93;54.85;95294.28;5039392;28;20502;-57
2023/05/12 09:55:08;;;;;;;4.70;4.30;;;14.90;94.50;;;14.88;54.65;95291.28;5038840;28;20460;-65
2023/05/12 09:57:40;;;;;;;5.77;3.67;;;14.90;94.20;;;14.88;54.77;95294.75;5037790;28;20528;-67
2023/05/12 10:00:11;;;;;;;3.50;3.27;;;14.90;94.30;;;14.92;54.83;95287.34;5037918;28;20444;-59
2023/05/12 10:02:41;;;;;;;7.23;3.37;;;14.90;94.20;;;15.10;53.99;95283.81;5033052;28;20467;-66
2023/05/12 10:05:13;;;;;;;4.27;3.47;;;15.00;93.90;;;15.27;53.88;95282.88;5037633;28;20591;-66
2023/05/12 10:07:40;;;;;;;7.37;3.90;;;15.10;93.70;;;15.46;54.26;95281.84;5034495;28;20944;-67
2023/05/12 10:10:09;;;;;;;3.50;3.20;;;15.30;94.10;;;15.71;53.84;95263.34;5035926;28;20459;-66
2023/05/12 10:12:37;;;;;;;6.87;4.57;;;15.50;93.70;;;15.88;53.06;95277.50;5031521;28;20858;-67
2023/05/12 10:15:07;;;;;;;3.50;3.17;;;15.70;93.00;;;16.02;52.84;95274.22;5035666;28;20460;-59
2023/05/12 10:17:34;;;;;;;4.77;3.70;;;15.80;92.70;;;16.16;52.41;95264.78;5031504;28;20480;-57
2023/05/12 10:20:05;;;;;;;7.00;3.83;;;16.00;92.50;;;16.26;52.28;95272.59;5038370;28;20448;-66
2023/05/12 10:22:33;;;;;;;4.50;4.10;;;16.10;92.00;;;16.35;52.42;95276.06;5034854;28;20465;-60
2023/05/12 10:25:01;;;;;;;4.93;4.43;;;16.20;92.30;;;16.42;52.52;95272.59;5036988;28;20463;-58
2023/05/12 10:27:28;;;;;;;6.83;5.47;;;16.30;92.10;;;16.45;51.72;95272.25;5036228;28;20464;-68
2023/05/12 10:29:57;;;;;;;6.20;5.60;;;16.30;91.40;;;16.46;51.97;95268.59;5035126;28;20567;-58